Terminal Aerodrome Forecast
Issued by NWS

Home | Current Version | Previous Version | Text Only | Print | Product List | Glossary Off
Versions: 1 2 3 4 5 6 7 8 9 10 11 12 13 14 15 16 17 18 19 20 21 22 23 24 25 26

561
FTUS43 KLOT 020314 AAB
TAFDPA
TAF AMD
KDPA 020314Z 0203/0224 03010KT 6SM -RA BR OVC007
     FM020600 01011KT P6SM OVC009
     FM020800 01010KT P6SM OVC012
     FM021100 03011KT P6SM SCT035 BKN050=

USA.gov is the U.S. government's official web portal to all federal, state and local government web resources and services.